sensor_id;sensor_type;location;lat;lon;timestamp;temperature;humidity
23237;DHT22;11787;52.018;8.570;2022-07-29T00:00:58;18.60;99.90
23237;DHT22;11787;52.018;8.570;2022-07-29T00:03:23;18.60;99.90
23237;DHT22;11787;52.018;8.570;2022-07-29T00:05:49;18.50;99.90
23237;DHT22;11787;52.018;8.570;2022-07-29T00:08:15;18.50;99.90
23237;DHT22;11787;52.018;8.570;2022-07-29T00:10:41;18.60;99.90
23237;DHT22;11787;52.018;8.570;2022-07-29T00:13:06;18.60;99.90
23237;DHT22;11787;52.018;8.570;2022-07-29T00:15:32;18.60;99.90
23237;DHT22;11787;52.018;8.570;2022-07-29T00:17:57;18.60;99.90
23237;DHT22;11787;52.018;8.570;2022-07-29T00:20:23;18.50;99.90
23237;DHT22;11787;52.018;8.570;2022-07-29T00:22:48;18.50;99.90
23237;DHT22;11787;52.018;8.570;2022-07-29T00:25:14;18.50;99.90
23237;DHT22;11787;52.018;8.570;2022-07-29T00:27:39;18.50;99.90
23237;DHT22;11787;52.018;8.570;2022-07-29T00:30:05;18.50;99.90
23237;DHT22;11787;52.018;8.570;2022-07-29T00:32:31;18.50;99.90
23237;DHT22;11787;52.018;8.570;2022-07-29T00:34:56;18.50;99.90
23237;DHT22;11787;52.018;8.570;2022-07-29T00:37:41;18.50;99.90
23237;DHT22;11787;52.018;8.570;2022-07-29T00:40:06;18.50;99.90
23237;DHT22;11787;52.018;8.570;2022-07-29T00:42:45;18.50;99.90
23237;DHT22;11787;52.018;8.570;2022-07-29T00:45:11;18.50;99.90
23237;DHT22;11787;52.018;8.570;2022-07-29T00:47:37;18.60;99.90
23237;DHT22;11787;52.018;8.570;2022-07-29T00:50:03;18.60;99.90
23237;DHT22;11787;52.018;8.570;2022-07-29T00:52:29;18.60;99.90
23237;DHT22;11787;52.018;8.570;2022-07-29T00:54:54;18.50;99.90
23237;DHT22;11787;52.018;8.570;2022-07-29T00:57:21;18.50;99.90
23237;DHT22;11787;52.018;8.570;2022-07-29T00:59:46;18.50;99.90
23237;DHT22;11787;52.018;8.570;2022-07-29T01:02:12;18.50;99.90
23237;DHT22;11787;52.018;8.570;2022-07-29T01:04:37;18.40;99.90
23237;DHT22;11787;52.018;8.570;2022-07-29T01:07:03;18.40;99.90
23237;DHT22;11787;52.018;8.570;2022-07-29T01:09:29;18.40;99.90
23237;DHT22;11787;52.018;8.570;2022-07-29T01:11:56;18.50;99.90
23237;DHT22;11787;52.018;8.570;2022-07-29T01:14:22;18.50;99.90
23237;DHT22;11787;52.018;8.570;2022-07-29T01:16:51;18.50;99.90
23237;DHT22;11787;52.018;8.570;2022-07-29T01:19:33;18.40;99.90
23237;DHT22;11787;52.018;8.570;2022-07-29T01:22:09;18.40;99.90
23237;DHT22;11787;52.018;8.570;2022-07-29T01:24:45;18.40;99.90
23237;DHT22;11787;52.018;8.570;2022-07-29T01:27:35;18.30;99.90
23237;DHT22;11787;52.018;8.570;2022-07-29T01:30:04;18.20;99.90
23237;DHT22;11787;52.018;8.570;2022-07-29T01:32:31;18.20;99.90
23237;DHT22;11787;52.018;8.570;2022-07-29T01:35:17;18.20;99.90
23237;DHT22;11787;52.018;8.570;2022-07-29T01:37:48;18.20;99.90
23237;DHT22;11787;52.018;8.570;2022-07-29T01:42:54;18.20;99.90
23237;DHT22;11787;52.018;8.570;2022-07-29T01:45:37;18.10;99.90
23237;DHT22;11787;52.018;8.570;2022-07-29T01:48:09;18.10;99.90
23237;DHT22;11787;52.018;8.570;2022-07-29T01:50:36;18.10;99.90
23237;DHT22;11787;52.018;8.570;2022-07-29T01:53:06;18.10;99.90
23237;DHT22;11787;52.018;8.570;2022-07-29T01:55:35;18.10;99.90
23237;DHT22;11787;52.018;8.570;2022-07-29T01:58:03;18.10;99.90
23237;DHT22;11787;52.018;8.570;2022-07-29T02:00:29;18.10;99.90
23237;DHT22;11787;52.018;8.570;2022-07-29T02:02:56;18.10;99.90
23237;DHT22;11787;52.018;8.570;2022-07-29T02:05:23;18.10;99.90
23237;DHT22;11787;52.018;8.570;2022-07-29T02:07:50;18.00;99.90
23237;DHT22;11787;52.018;8.570;2022-07-29T02:10:18;18.00;99.90
23237;DHT22;11787;52.018;8.570;2022-07-29T02:12:46;18.00;99.90
23237;DHT22;11787;52.018;8.570;2022-07-29T02:15:13;18.00;99.90
23237;DHT22;11787;52.018;8.570;2022-07-29T02:17:44;17.90;99.90
23237;DHT22;11787;52.018;8.570;2022-07-29T02:20:11;17.90;99.90
23237;DHT22;11787;52.018;8.570;2022-07-29T02:22:37;17.80;99.90
23237;DHT22;11787;52.018;8.570;2022-07-29T02:25:04;17.90;99.90
23237;DHT22;11787;52.018;8.570;2022-07-29T02:27:30;17.90;99.90
23237;DHT22;11787;52.018;8.570;2022-07-29T02:29:56;17.90;99.90
23237;DHT22;11787;52.018;8.570;2022-07-29T02:32:23;17.90;99.90
23237;DHT22;11787;52.018;8.570;2022-07-29T02:34:49;17.90;99.90
23237;DHT22;11787;52.018;8.570;2022-07-29T02:37:16;17.90;99.90
23237;DHT22;11787;52.018;8.570;2022-07-29T02:39:43;17.80;99.90
23237;DHT22;11787;52.018;8.570;2022-07-29T02:42:10;17.70;99.90
23237;DHT22;11787;52.018;8.570;2022-07-29T02:44:36;17.60;99.90
23237;DHT22;11787;52.018;8.570;2022-07-29T02:50:00;17.60;99.90
23237;DHT22;11787;52.018;8.570;2022-07-29T02:52:30;17.70;99.90
23237;DHT22;11787;52.018;8.570;2022-07-29T02:54:59;17.70;99.90
23237;DHT22;11787;52.018;8.570;2022-07-29T03:00:02;17.70;99.90
23237;DHT22;11787;52.018;8.570;2022-07-29T03:02:29;17.60;99.90
23237;DHT22;11787;52.018;8.570;2022-07-29T03:04:58;17.60;99.90
23237;DHT22;11787;52.018;8.570;2022-07-29T03:07:25;17.50;99.90
23237;DHT22;11787;52.018;8.570;2022-07-29T03:09:51;17.40;99.90
23237;DHT22;11787;52.018;8.570;2022-07-29T03:12:17;17.30;99.90
23237;DHT22;11787;52.018;8.570;2022-07-29T03:14:43;17.30;99.90
23237;DHT22;11787;52.018;8.570;2022-07-29T03:17:09;17.30;99.90
23237;DHT22;11787;52.018;8.570;2022-07-29T03:19:35;17.20;99.90
23237;DHT22;11787;52.018;8.570;2022-07-29T03:22:00;17.20;99.90
23237;DHT22;11787;52.018;8.570;2022-07-29T03:24:30;17.20;99.90
23237;DHT22;11787;52.018;8.570;2022-07-29T03:26:56;17.20;99.90
23237;DHT22;11787;52.018;8.570;2022-07-29T03:29:22;17.20;99.90
23237;DHT22;11787;52.018;8.570;2022-07-29T03:31:47;17.20;99.90
23237;DHT22;11787;52.018;8.570;2022-07-29T03:34:13;17.20;99.90
23237;DHT22;11787;52.018;8.570;2022-07-29T03:36:38;17.20;99.90
23237;DHT22;11787;52.018;8.570;2022-07-29T03:39:04;17.30;99.90
23237;DHT22;11787;52.018;8.570;2022-07-29T03:41:30;17.30;99.90
23237;DHT22;11787;52.018;8.570;2022-07-29T03:43:56;17.30;99.90
23237;DHT22;11787;52.018;8.570;2022-07-29T03:46:24;17.30;99.90
23237;DHT22;11787;52.018;8.570;2022-07-29T03:48:52;17.30;99.90
23237;DHT22;11787;52.018;8.570;2022-07-29T03:51:21;17.20;99.90
23237;DHT22;11787;52.018;8.570;2022-07-29T03:53:46;17.20;99.90
23237;DHT22;11787;52.018;8.570;2022-07-29T03:56:12;17.20;99.90
23237;DHT22;11787;52.018;8.570;2022-07-29T03:58:41;17.20;99.90
23237;DHT22;11787;52.018;8.570;2022-07-29T04:01:07;17.20;99.90
23237;DHT22;11787;52.018;8.570;2022-07-29T04:03:33;17.20;99.90
23237;DHT22;11787;52.018;8.570;2022-07-29T04:06:00;17.10;99.90
23237;DHT22;11787;52.018;8.570;2022-07-29T04:08:25;17.10;99.90
23237;DHT22;11787;52.018;8.570;2022-07-29T04:10:51;17.00;99.90
23237;DHT22;11787;52.018;8.570;2022-07-29T04:13:18;17.00;99.90
23237;DHT22;11787;52.018;8.570;2022-07-29T04:15:43;17.00;99.90
23237;DHT22;11787;52.018;8.570;2022-07-29T04:18:09;17.00;99.90
23237;DHT22;11787;52.018;8.570;2022-07-29T04:20:35;17.00;99.90
23237;DHT22;11787;52.018;8.570;2022-07-29T04:23:00;17.00;99.90
23237;DHT22;11787;52.018;8.570;2022-07-29T04:25:25;16.90;99.90
23237;DHT22;11787;52.018;8.570;2022-07-29T04:27:51;17.00;99.90
23237;DHT22;11787;52.018;8.570;2022-07-29T04:30:26;17.00;99.90
23237;DHT22;11787;52.018;8.570;2022-07-29T04:32:51;17.00;99.90
23237;DHT22;11787;52.018;8.570;2022-07-29T04:35:18;17.00;99.90
23237;DHT22;11787;52.018;8.570;2022-07-29T04:37:44;17.00;99.90
23237;DHT22;11787;52.018;8.570;2022-07-29T04:40:09;17.10;99.90
23237;DHT22;11787;52.018;8.570;2022-07-29T04:42:35;17.10;99.90
23237;DHT22;11787;52.018;8.570;2022-07-29T04:45:00;17.20;99.90
23237;DHT22;11787;52.018;8.570;2022-07-29T04:47:26;17.20;99.90
23237;DHT22;11787;52.018;8.570;2022-07-29T04:49:52;17.20;99.90
23237;DHT22;11787;52.018;8.570;2022-07-29T04:52:17;17.20;99.90
23237;DHT22;11787;52.018;8.570;2022-07-29T04:54:43;17.10;99.90
23237;DHT22;11787;52.018;8.570;2022-07-29T04:57:08;17.20;99.90
23237;DHT22;11787;52.018;8.570;2022-07-29T04:59:34;17.10;99.90
23237;DHT22;11787;52.018;8.570;2022-07-29T05:01:59;17.20;99.90
23237;DHT22;11787;52.018;8.570;2022-07-29T05:04:24;17.20;99.90
23237;DHT22;11787;52.018;8.570;2022-07-29T05:06:50;17.30;99.90
23237;DHT22;11787;52.018;8.570;2022-07-29T05:09:15;17.30;99.90
23237;DHT22;11787;52.018;8.570;2022-07-29T05:11:41;17.40;99.90
23237;DHT22;11787;52.018;8.570;2022-07-29T05:14:06;17.50;99.90
23237;DHT22;11787;52.018;8.570;2022-07-29T05:16:32;17.50;99.90
23237;DHT22;11787;52.018;8.570;2022-07-29T05:18:58;17.50;99.90
23237;DHT22;11787;52.018;8.570;2022-07-29T05:21:24;17.50;99.90
23237;DHT22;11787;52.018;8.570;2022-07-29T05:23:49;17.60;99.90
23237;DHT22;11787;52.018;8.570;2022-07-29T05:26:15;17.60;99.90
23237;DHT22;11787;52.018;8.570;2022-07-29T05:28:41;17.70;99.90
23237;DHT22;11787;52.018;8.570;2022-07-29T05:31:06;17.80;99.90
23237;DHT22;11787;52.018;8.570;2022-07-29T05:33:32;17.80;99.90
23237;DHT22;11787;52.018;8.570;2022-07-29T05:35:58;17.90;99.90
23237;DHT22;11787;52.018;8.570;2022-07-29T05:38:23;18.00;99.90
23237;DHT22;11787;52.018;8.570;2022-07-29T05:40:49;18.00;99.90
23237;DHT22;11787;52.018;8.570;2022-07-29T05:43:14;18.10;99.90
23237;DHT22;11787;52.018;8.570;2022-07-29T05:45:40;18.10;99.90
23237;DHT22;11787;52.018;8.570;2022-07-29T05:48:05;18.20;99.90
23237;DHT22;11787;52.018;8.570;2022-07-29T05:50:31;18.20;99.90
23237;DHT22;11787;52.018;8.570;2022-07-29T05:52:56;18.30;99.90
23237;DHT22;11787;52.018;8.570;2022-07-29T05:55:22;18.30;99.90
23237;DHT22;11787;52.018;8.570;2022-07-29T05:57:47;18.30;99.90
23237;DHT22;11787;52.018;8.570;2022-07-29T06:00:13;18.30;99.90
23237;DHT22;11787;52.018;8.570;2022-07-29T06:02:38;18.40;99.90
23237;DHT22;11787;52.018;8.570;2022-07-29T06:05:04;18.40;99.90
23237;DHT22;11787;52.018;8.570;2022-07-29T06:07:29;18.50;99.90
23237;DHT22;11787;52.018;8.570;2022-07-29T06:09:55;18.50;99.90
23237;DHT22;11787;52.018;8.570;2022-07-29T06:12:21;18.60;99.90
23237;DHT22;11787;52.018;8.570;2022-07-29T06:14:47;18.70;99.90
23237;DHT22;11787;52.018;8.570;2022-07-29T06:17:12;18.70;99.90
23237;DHT22;11787;52.018;8.570;2022-07-29T06:19:37;18.70;99.90
23237;DHT22;11787;52.018;8.570;2022-07-29T06:22:03;18.70;99.90
23237;DHT22;11787;52.018;8.570;2022-07-29T06:24:29;18.80;99.90
23237;DHT22;11787;52.018;8.570;2022-07-29T06:26:54;18.90;99.90
23237;DHT22;11787;52.018;8.570;2022-07-29T06:29:20;19.00;99.90
23237;DHT22;11787;52.018;8.570;2022-07-29T06:31:45;19.00;99.90
23237;DHT22;11787;52.018;8.570;2022-07-29T06:34:11;19.10;99.90
23237;DHT22;11787;52.018;8.570;2022-07-29T06:36:36;19.20;99.90
23237;DHT22;11787;52.018;8.570;2022-07-29T06:39:06;19.30;99.90
23237;DHT22;11787;52.018;8.570;2022-07-29T06:41:32;19.30;99.90
23237;DHT22;11787;52.018;8.570;2022-07-29T06:43:57;19.30;99.90
23237;DHT22;11787;52.018;8.570;2022-07-29T06:46:24;19.40;99.90
23237;DHT22;11787;52.018;8.570;2022-07-29T06:48:51;19.40;99.90
23237;DHT22;11787;52.018;8.570;2022-07-29T06:51:17;19.50;99.90
23237;DHT22;11787;52.018;8.570;2022-07-29T06:53:43;19.50;99.90
23237;DHT22;11787;52.018;8.570;2022-07-29T06:56:08;19.60;99.90
23237;DHT22;11787;52.018;8.570;2022-07-29T06:58:34;19.70;99.90
23237;DHT22;11787;52.018;8.570;2022-07-29T07:01:01;19.70;99.90
23237;DHT22;11787;52.018;8.570;2022-07-29T07:03:27;19.60;99.90
23237;DHT22;11787;52.018;8.570;2022-07-29T07:05:53;19.60;99.90
23237;DHT22;11787;52.018;8.570;2022-07-29T07:08:18;19.70;99.90
23237;DHT22;11787;52.018;8.570;2022-07-29T07:10:44;19.80;99.90
23237;DHT22;11787;52.018;8.570;2022-07-29T07:13:10;19.80;99.90
23237;DHT22;11787;52.018;8.570;2022-07-29T07:15:36;19.80;99.90
23237;DHT22;11787;52.018;8.570;2022-07-29T07:18:02;19.90;99.90
23237;DHT22;11787;52.018;8.570;2022-07-29T07:20:27;20.00;99.90
23237;DHT22;11787;52.018;8.570;2022-07-29T07:22:53;20.00;99.90
23237;DHT22;11787;52.018;8.570;2022-07-29T07:25:19;20.10;99.90
23237;DHT22;11787;52.018;8.570;2022-07-29T07:27:44;20.20;99.90
23237;DHT22;11787;52.018;8.570;2022-07-29T07:30:10;20.30;99.90
23237;DHT22;11787;52.018;8.570;2022-07-29T07:32:36;20.30;99.90
23237;DHT22;11787;52.018;8.570;2022-07-29T07:35:04;20.40;99.90
23237;DHT22;11787;52.018;8.570;2022-07-29T07:37:29;20.50;99.90
23237;DHT22;11787;52.018;8.570;2022-07-29T07:39:55;20.60;99.90
23237;DHT22;11787;52.018;8.570;2022-07-29T07:42:21;20.60;99.90
23237;DHT22;11787;52.018;8.570;2022-07-29T07:44:46;20.70;99.90
23237;DHT22;11787;52.018;8.570;2022-07-29T07:47:14;20.80;99.90
23237;DHT22;11787;52.018;8.570;2022-07-29T07:49:39;20.80;99.90
23237;DHT22;11787;52.018;8.570;2022-07-29T07:52:05;20.90;99.90
23237;DHT22;11787;52.018;8.570;2022-07-29T07:54:31;21.00;99.90
23237;DHT22;11787;52.018;8.570;2022-07-29T07:56:57;21.00;99.90
23237;DHT22;11787;52.018;8.570;2022-07-29T07:59:22;20.90;99.90
23237;DHT22;11787;52.018;8.570;2022-07-29T08:01:49;21.10;99.90
23237;DHT22;11787;52.018;8.570;2022-07-29T08:04:14;21.10;99.90
23237;DHT22;11787;52.018;8.570;2022-07-29T08:06:40;21.30;99.90
23237;DHT22;11787;52.018;8.570;2022-07-29T08:09:05;21.50;99.90
23237;DHT22;11787;52.018;8.570;2022-07-29T08:11:31;21.70;99.90
23237;DHT22;11787;52.018;8.570;2022-07-29T08:13:57;21.70;99.90
23237;DHT22;11787;52.018;8.570;2022-07-29T08:16:23;21.70;99.90
23237;DHT22;11787;52.018;8.570;2022-07-29T08:18:51;21.70;99.90
23237;DHT22;11787;52.018;8.570;2022-07-29T08:21:17;21.80;99.90
23237;DHT22;11787;52.018;8.570;2022-07-29T08:23:46;21.70;99.90
23237;DHT22;11787;52.018;8.570;2022-07-29T08:26:16;21.70;99.90
23237;DHT22;11787;52.018;8.570;2022-07-29T08:28:43;21.80;99.90
23237;DHT22;11787;52.018;8.570;2022-07-29T08:31:11;21.90;99.90
23237;DHT22;11787;52.018;8.570;2022-07-29T08:33:37;22.00;99.90
23237;DHT22;11787;52.018;8.570;2022-07-29T08:36:04;22.20;99.90
23237;DHT22;11787;52.018;8.570;2022-07-29T08:38:29;22.30;99.90
23237;DHT22;11787;52.018;8.570;2022-07-29T08:40:55;22.40;99.90
23237;DHT22;11787;52.018;8.570;2022-07-29T08:43:21;22.50;99.90
23237;DHT22;11787;52.018;8.570;2022-07-29T08:45:49;22.50;99.90
23237;DHT22;11787;52.018;8.570;2022-07-29T08:48:17;22.40;99.90
23237;DHT22;11787;52.018;8.570;2022-07-29T08:50:47;22.50;99.90
23237;DHT22;11787;52.018;8.570;2022-07-29T08:53:14;22.50;99.90
23237;DHT22;11787;52.018;8.570;2022-07-29T08:55:46;22.70;99.90
23237;DHT22;11787;52.018;8.570;2022-07-29T08:58:13;22.90;99.90
23237;DHT22;11787;52.018;8.570;2022-07-29T09:00:45;23.10;99.90
23237;DHT22;11787;52.018;8.570;2022-07-29T09:03:15;23.30;99.90
23237;DHT22;11787;52.018;8.570;2022-07-29T09:05:42;23.60;99.90
23237;DHT22;11787;52.018;8.570;2022-07-29T09:08:07;23.70;99.90
23237;DHT22;11787;52.018;8.570;2022-07-29T09:10:35;23.80;99.90
23237;DHT22;11787;52.018;8.570;2022-07-29T09:13:00;23.70;99.90
23237;DHT22;11787;52.018;8.570;2022-07-29T09:15:26;23.50;99.90
23237;DHT22;11787;52.018;8.570;2022-07-29T09:17:51;23.60;99.90
23237;DHT22;11787;52.018;8.570;2022-07-29T09:20:20;23.80;99.90
23237;DHT22;11787;52.018;8.570;2022-07-29T09:22:46;24.20;99.90
23237;DHT22;11787;52.018;8.570;2022-07-29T09:25:15;24.30;99.90
23237;DHT22;11787;52.018;8.570;2022-07-29T09:28:04;24.50;99.90
23237;DHT22;11787;52.018;8.570;2022-07-29T09:30:30;24.90;99.90
23237;DHT22;11787;52.018;8.570;2022-07-29T09:32:56;25.20;99.90
23237;DHT22;11787;52.018;8.570;2022-07-29T09:35:23;25.50;99.90
23237;DHT22;11787;52.018;8.570;2022-07-29T09:37:49;25.60;99.90
23237;DHT22;11787;52.018;8.570;2022-07-29T09:40:16;25.70;99.90
23237;DHT22;11787;52.018;8.570;2022-07-29T09:42:42;25.70;99.90
23237;DHT22;11787;52.018;8.570;2022-07-29T09:45:07;25.40;99.90
23237;DHT22;11787;52.018;8.570;2022-07-29T09:47:51;25.00;99.90
23237;DHT22;11787;52.018;8.570;2022-07-29T09:50:16;24.60;99.90
23237;DHT22;11787;52.018;8.570;2022-07-29T09:52:50;24.50;99.90
23237;DHT22;11787;52.018;8.570;2022-07-29T09:55:16;24.60;99.90
23237;DHT22;11787;52.018;8.570;2022-07-29T09:57:42;24.80;99.90
23237;DHT22;11787;52.018;8.570;2022-07-29T10:00:09;24.80;99.90
23237;DHT22;11787;52.018;8.570;2022-07-29T10:02:35;24.90;99.90
23237;DHT22;11787;52.018;8.570;2022-07-29T10:05:02;25.00;99.90
23237;DHT22;11787;52.018;8.570;2022-07-29T10:25:47;24.90;99.90
23237;DHT22;11787;52.018;8.570;2022-07-29T10:28:13;24.80;99.90
23237;DHT22;11787;52.018;8.570;2022-07-29T10:30:38;25.30;99.90
23237;DHT22;11787;52.018;8.570;2022-07-29T10:43:51;27.40;99.90
23237;DHT22;11787;52.018;8.570;2022-07-29T10:46:18;28.00;99.90
23237;DHT22;11787;52.018;8.570;2022-07-29T10:51:50;28.10;99.90
23237;DHT22;11787;52.018;8.570;2022-07-29T10:54:14;28.00;99.90
23237;DHT22;11787;52.018;8.570;2022-07-29T10:56:40;27.70;99.90
23237;DHT22;11787;52.018;8.570;2022-07-29T11:01:48;27.60;99.90
23237;DHT22;11787;52.018;8.570;2022-07-29T11:07:07;27.90;99.90
23237;DHT22;11787;52.018;8.570;2022-07-29T11:09:33;28.70;99.90
23237;DHT22;11787;52.018;8.570;2022-07-29T11:11:59;28.90;99.90
23237;DHT22;11787;52.018;8.570;2022-07-29T11:17:09;28.70;99.90
23237;DHT22;11787;52.018;8.570;2022-07-29T11:19:34;28.90;99.90
23237;DHT22;11787;52.018;8.570;2022-07-29T11:22:00;28.70;99.90
23237;DHT22;11787;52.018;8.570;2022-07-29T11:24:27;28.40;99.90
23237;DHT22;11787;52.018;8.570;2022-07-29T11:29:31;27.90;99.90
23237;DHT22;11787;52.018;8.570;2022-07-29T11:32:08;27.90;99.90
23237;DHT22;11787;52.018;8.570;2022-07-29T11:34:34;28.10;99.90
23237;DHT22;11787;52.018;8.570;2022-07-29T11:39:39;28.70;99.90
23237;DHT22;11787;52.018;8.570;2022-07-29T11:47:21;28.60;99.90
23237;DHT22;11787;52.018;8.570;2022-07-29T11:49:47;28.50;99.90
23237;DHT22;11787;52.018;8.570;2022-07-29T11:52:13;28.50;99.90
23237;DHT22;11787;52.018;8.570;2022-07-29T11:54:38;28.20;99.90
23237;DHT22;11787;52.018;8.570;2022-07-29T11:57:07;28.10;99.90
23237;DHT22;11787;52.018;8.570;2022-07-29T11:59:38;28.30;99.90
23237;DHT22;11787;52.018;8.570;2022-07-29T12:02:04;28.70;99.90
23237;DHT22;11787;52.018;8.570;2022-07-29T12:04:29;28.80;99.90
23237;DHT22;11787;52.018;8.570;2022-07-29T12:06:55;28.80;99.90
23237;DHT22;11787;52.018;8.570;2022-07-29T12:09:22;29.10;99.90
23237;DHT22;11787;52.018;8.570;2022-07-29T12:11:47;29.00;99.90
23237;DHT22;11787;52.018;8.570;2022-07-29T12:16:51;28.70;99.90
23237;DHT22;11787;52.018;8.570;2022-07-29T12:19:16;28.80;99.90
23237;DHT22;11787;52.018;8.570;2022-07-29T12:21:49;28.80;99.90
23237;DHT22;11787;52.018;8.570;2022-07-29T12:24:14;29.20;99.90
23237;DHT22;11787;52.018;8.570;2022-07-29T12:29:15;29.10;99.90
23237;DHT22;11787;52.018;8.570;2022-07-29T12:31:42;29.40;99.90
23237;DHT22;11787;52.018;8.570;2022-07-29T12:34:07;29.10;99.90
23237;DHT22;11787;52.018;8.570;2022-07-29T12:36:33;28.90;99.90
23237;DHT22;11787;52.018;8.570;2022-07-29T12:38:58;28.60;99.90
23237;DHT22;11787;52.018;8.570;2022-07-29T12:41:24;28.30;99.90
23237;DHT22;11787;52.018;8.570;2022-07-29T12:43:53;28.20;99.90
23237;DHT22;11787;52.018;8.570;2022-07-29T12:46:19;27.90;99.90
23237;DHT22;11787;52.018;8.570;2022-07-29T12:48:44;27.90;99.90
23237;DHT22;11787;52.018;8.570;2022-07-29T12:51:10;28.10;99.90
23237;DHT22;11787;52.018;8.570;2022-07-29T12:53:37;28.20;99.90
23237;DHT22;11787;52.018;8.570;2022-07-29T12:56:03;28.20;99.90
23237;DHT22;11787;52.018;8.570;2022-07-29T13:01:01;28.60;99.90
23237;DHT22;11787;52.018;8.570;2022-07-29T13:03:27;28.90;99.90
23237;DHT22;11787;52.018;8.570;2022-07-29T13:05:52;29.10;99.90
23237;DHT22;11787;52.018;8.570;2022-07-29T13:08:18;28.90;99.90
23237;DHT22;11787;52.018;8.570;2022-07-29T13:10:45;28.80;99.90
23237;DHT22;11787;52.018;8.570;2022-07-29T13:13:12;28.50;99.90
23237;DHT22;11787;52.018;8.570;2022-07-29T13:15:41;28.40;99.90
23237;DHT22;11787;52.018;8.570;2022-07-29T13:20:51;28.20;99.90
23237;DHT22;11787;52.018;8.570;2022-07-29T13:23:17;28.20;99.90
23237;DHT22;11787;52.018;8.570;2022-07-29T13:25:43;28.10;99.90
23237;DHT22;11787;52.018;8.570;2022-07-29T13:28:08;27.90;99.90
23237;DHT22;11787;52.018;8.570;2022-07-29T13:30:34;27.80;99.90
23237;DHT22;11787;52.018;8.570;2022-07-29T13:32:59;27.70;99.90
23237;DHT22;11787;52.018;8.570;2022-07-29T13:35:25;27.50;99.90
23237;DHT22;11787;52.018;8.570;2022-07-29T13:37:50;27.30;99.90
23237;DHT22;11787;52.018;8.570;2022-07-29T13:40:16;27.30;99.90
23237;DHT22;11787;52.018;8.570;2022-07-29T13:42:42;27.20;99.90
23237;DHT22;11787;52.018;8.570;2022-07-29T13:45:09;27.00;99.90
23237;DHT22;11787;52.018;8.570;2022-07-29T13:47:36;27.00;99.90
23237;DHT22;11787;52.018;8.570;2022-07-29T13:50:02;27.10;99.90
23237;DHT22;11787;52.018;8.570;2022-07-29T13:52:27;26.90;99.90
23237;DHT22;11787;52.018;8.570;2022-07-29T13:54:53;26.90;99.90
23237;DHT22;11787;52.018;8.570;2022-07-29T13:57:19;26.80;99.90
23237;DHT22;11787;52.018;8.570;2022-07-29T13:59:44;26.80;99.90
23237;DHT22;11787;52.018;8.570;2022-07-29T14:02:11;26.80;99.90
23237;DHT22;11787;52.018;8.570;2022-07-29T14:04:37;26.70;99.90
23237;DHT22;11787;52.018;8.570;2022-07-29T14:07:03;26.70;99.90
23237;DHT22;11787;52.018;8.570;2022-07-29T14:09:29;26.60;99.90
23237;DHT22;11787;52.018;8.570;2022-07-29T14:11:54;26.60;99.90
23237;DHT22;11787;52.018;8.570;2022-07-29T14:14:20;26.60;99.90
23237;DHT22;11787;52.018;8.570;2022-07-29T14:16:46;26.60;99.90
23237;DHT22;11787;52.018;8.570;2022-07-29T14:19:12;26.70;99.90
23237;DHT22;11787;52.018;8.570;2022-07-29T14:21:38;26.80;99.90
23237;DHT22;11787;52.018;8.570;2022-07-29T14:24:04;26.70;99.90
23237;DHT22;11787;52.018;8.570;2022-07-29T14:26:30;26.90;99.90
23237;DHT22;11787;52.018;8.570;2022-07-29T14:28:55;26.90;99.90
23237;DHT22;11787;52.018;8.570;2022-07-29T14:31:21;26.90;99.90
23237;DHT22;11787;52.018;8.570;2022-07-29T14:33:47;26.80;99.90
23237;DHT22;11787;52.018;8.570;2022-07-29T14:36:12;26.90;99.90
23237;DHT22;11787;52.018;8.570;2022-07-29T14:38:38;26.90;99.90
23237;DHT22;11787;52.018;8.570;2022-07-29T14:41:06;26.90;99.90
23237;DHT22;11787;52.018;8.570;2022-07-29T14:43:31;27.00;99.90
23237;DHT22;11787;52.018;8.570;2022-07-29T14:45:57;26.80;99.90
23237;DHT22;11787;52.018;8.570;2022-07-29T14:48:23;26.50;99.90
23237;DHT22;11787;52.018;8.570;2022-07-29T14:50:48;26.50;99.90
23237;DHT22;11787;52.018;8.570;2022-07-29T14:53:14;26.50;99.90
23237;DHT22;11787;52.018;8.570;2022-07-29T14:55:40;26.40;99.90
23237;DHT22;11787;52.018;8.570;2022-07-29T14:58:07;26.40;99.90
23237;DHT22;11787;52.018;8.570;2022-07-29T15:00:33;26.10;99.90
23237;DHT22;11787;52.018;8.570;2022-07-29T15:03:03;26.00;99.90
23237;DHT22;11787;52.018;8.570;2022-07-29T15:05:29;25.90;99.90
23237;DHT22;11787;52.018;8.570;2022-07-29T15:07:55;25.90;99.90
23237;DHT22;11787;52.018;8.570;2022-07-29T15:10:21;25.80;99.90
23237;DHT22;11787;52.018;8.570;2022-07-29T15:12:46;25.90;99.90
23237;DHT22;11787;52.018;8.570;2022-07-29T15:15:12;25.70;99.90
23237;DHT22;11787;52.018;8.570;2022-07-29T15:17:37;25.60;99.90
23237;DHT22;11787;52.018;8.570;2022-07-29T15:20:03;25.60;99.90
23237;DHT22;11787;52.018;8.570;2022-07-29T15:22:29;25.40;99.90
23237;DHT22;11787;52.018;8.570;2022-07-29T15:24:55;25.40;99.90
23237;DHT22;11787;52.018;8.570;2022-07-29T15:27:20;25.30;99.90
23237;DHT22;11787;52.018;8.570;2022-07-29T15:29:45;25.20;99.90
23237;DHT22;11787;52.018;8.570;2022-07-29T15:32:11;25.00;99.90
23237;DHT22;11787;52.018;8.570;2022-07-29T15:34:37;24.90;99.90
23237;DHT22;11787;52.018;8.570;2022-07-29T15:37:03;24.90;99.90
23237;DHT22;11787;52.018;8.570;2022-07-29T15:39:29;24.90;99.90
23237;DHT22;11787;52.018;8.570;2022-07-29T15:41:54;24.90;99.90
23237;DHT22;11787;52.018;8.570;2022-07-29T15:44:20;24.90;99.90
23237;DHT22;11787;52.018;8.570;2022-07-29T15:46:46;24.90;99.90
23237;DHT22;11787;52.018;8.570;2022-07-29T15:49:36;24.90;99.90
23237;DHT22;11787;52.018;8.570;2022-07-29T15:52:06;24.90;99.90
23237;DHT22;11787;52.018;8.570;2022-07-29T15:54:32;24.70;99.90
23237;DHT22;11787;52.018;8.570;2022-07-29T15:56:58;24.60;99.90
23237;DHT22;11787;52.018;8.570;2022-07-29T15:59:24;24.50;99.90
23237;DHT22;11787;52.018;8.570;2022-07-29T16:01:49;24.50;99.90
23237;DHT22;11787;52.018;8.570;2022-07-29T16:04:15;24.40;99.90
23237;DHT22;11787;52.018;8.570;2022-07-29T16:06:41;24.40;99.90
23237;DHT22;11787;52.018;8.570;2022-07-29T16:09:07;24.30;99.90
23237;DHT22;11787;52.018;8.570;2022-07-29T16:11:32;24.30;99.90
23237;DHT22;11787;52.018;8.570;2022-07-29T16:13:58;24.30;99.90
23237;DHT22;11787;52.018;8.570;2022-07-29T16:16:23;24.20;99.90
23237;DHT22;11787;52.018;8.570;2022-07-29T16:18:49;24.20;99.90
23237;DHT22;11787;52.018;8.570;2022-07-29T16:21:14;24.20;99.90
23237;DHT22;11787;52.018;8.570;2022-07-29T16:23:40;24.20;99.90
23237;DHT22;11787;52.018;8.570;2022-07-29T16:26:05;24.10;99.90
23237;DHT22;11787;52.018;8.570;2022-07-29T16:28:31;24.10;99.90
23237;DHT22;11787;52.018;8.570;2022-07-29T16:30:57;24.00;99.90
23237;DHT22;11787;52.018;8.570;2022-07-29T16:33:22;24.10;99.90
23237;DHT22;11787;52.018;8.570;2022-07-29T16:35:48;24.00;99.90